DW5911 Weather Reports


Display with metric or nautical units.
time (UTC)temp
F
wind
direction
speed
MPH
gust
MPH
rain 1hr
in
rain 24hr
in
rain mn
in
humidity
%
barometer
mb
20191022192039 57 180 2.0 4.0 0.00 0.00 0.00 99 1002.1
20191022191020 57 135 4.0 7.0 0.00 0.00 0.00 99 1002.0
20191022190026 57 180 2.0 4.0 0.00 0.00 0.00 99 1002.0
20191022184023 58 180 2.0 4.0 0.00 0.00 0.00 99 1002.0
20191022183036 58 225 2.0 4.0 0.00 0.00 0.00 99 1002.1
20191022181035 58 180 4.0 6.0 0.00 0.00 0.00 99 1002.6
20191022175034 58 135 3.0 8.0 0.00 0.00 0.00 99 1002.7
20191022172035 58 180 4.0 7.0 0.00 0.00 0.00 99 1003.2
20191022171018 58 202 3.0 6.0 0.00 0.00 0.00 97 1003.5
20191022170035 59 225 1.0 4.0 0.00 0.00 0.00 94 1003.7
20191022165034 60 202 2.0 4.0 0.00 0.00 0.00 87 1004.1
20191022164035 61 180 7.0 11.0 0.00 0.00 0.00 79 1004.3
20191022161035 62 180 8.0 15.0 0.00 0.00 0.00 77 1003.3
20191022160035 62 135 4.0 7.0 0.00 0.00 0.00 77 1003.5
20191022155017 62 180 8.0 15.0 0.00 0.00 0.00 77 1003.3
20191022153035 61 180 7.0 12.0 0.00 0.00 0.00 77 1003.2
20191022152034 62 158 6.0 12.0 0.00 0.00 0.00 78 1003.4
20191022151035 62 180 11.0 21.0 0.00 0.00 0.00 77 1003.2
20191022150035 62 180 10.0 17.0 0.00 0.00 0.00 78 1003.5
20191022144035 61 180 8.0 15.0 0.00 0.00 0.00 79 1003.5
20191022142034 61 180 9.0 18.0 0.00 0.00 0.00 78 1003.3
20191022141035 61 180 11.0 17.0 0.00 0.00 0.00 78 1003.4
20191022140035 61 180 7.0 14.0 0.00 0.00 0.00 79 1003.6
20191022134018 61 180 9.0 15.0 0.00 0.00 0.00 79 1003.7
20191022133035 61 225 5.0 9.0 0.00 0.00 0.00 79 1003.8
20191022132034 61 225 8.0 16.0 0.00 0.00 0.00 79 1004.1
20191022131035 61 180 8.0 14.0 0.00 0.00 0.00 78 1003.8
20191022125036 61 180 8.0 14.0 0.00 0.00 0.00 78 1003.9
20191022122034 61 225 11.0 20.0 0.00 0.00 0.00 78 1003.9
20191022120035 61 90 8.0 18.0 0.00 0.00 0.00 79 1004.1
20191022113039 61 202 11.0 19.0 0.00 0.00 0.00 78 1004.4
20191022112035 61 180 7.0 21.0 0.00 0.00 0.00 76 1004.5
20191022110035 61 180 13.0 25.0 0.00 0.00 0.00 75 1004.9
20191022104038 61 180 8.0 15.0 0.00 0.00 0.00 77 1004.5
20191022103038 60 135 7.0 13.0 0.00 0.00 0.00 78 1004.6
20191022102034 60 180 13.0 25.0 0.00 0.00 0.00 77 1004.2
20191022101035 61 135 8.0 16.0 0.00 0.00 0.00 76 1004.2
20191022095035 61 180 10.0 20.0 0.00 0.00 0.00 72 1004.0
20191022094034 61 180 17.0 24.0 0.00 0.00 0.00 71 1003.9
20191022092034 61 180 9.0 16.0 0.00 0.00 0.00 70 1004.0
20191022091035 61 180 18.0 25.0 0.00 0.00 0.00 69 1004.4
20191022090034 61 180 10.0 17.0 0.00 0.00 0.00 69 1003.8
20191022084033 61 135 12.0 21.0 0.00 0.00 0.00 67 1004.1
20191022083034 61 180 12.0 17.0 0.00 0.00 0.00 65 1003.9
20191022082033 61 180 11.0 19.0 0.00 0.00 0.00 64 1004.0
20191022081034 62 90 12.0 22.0 0.00 0.00 0.00 63 1004.1
20191022080034 61 225 11.0 21.0 0.00 0.00 0.00 63 1004.2
20191022075035 62 180 11.0 19.0 0.00 0.00 0.00 63 1004.5
20191022072033 62 180 19.0 27.0 0.00 0.00 0.00 62 1004.5
20191022071033 62 90 15.0 28.0 0.00 0.00 0.00 62 1005.0
20191022064033 62 180 12.0 19.0 0.00 0.00 0.00 64 1004.6
20191022063034 62 180 9.0 20.0 0.00 0.00 0.00 64 1005.0
20191022061034 62 225 10.0 14.0 0.00 0.00 0.00 66 1005.4
20191022060035 61 180 10.0 24.0 0.00 0.00 0.00 67 1006.0
20191022055018 61 180 11.0 23.0 0.00 0.00 0.00 68 1005.7
20191022053035 61 225 11.0 17.0 0.00 0.00 0.00 69 1005.9
20191022044033 60 180 13.0 24.0 0.00 0.00 0.00 71 1006.1
20191022042021 60 90 5.0 10.0 0.00 0.00 0.00 72 1006.6
20191022041035 60 180 4.0 8.0 0.00 0.00 0.00 72 1006.9
20191022034033 59 90 5.0 8.0 0.00 0.00 0.00 73 1007.3
20191022030034 58 158 2.0 7.0 0.00 0.00 0.00 76 1007.7
20191022024033 57 180 2.0 4.0 0.00 0.00 0.00 80 1007.9
20191022023034 56 225 1.0 2.0 0.00 0.00 0.00 82 1008.2
20191022014033 55 180 0.0 1.0 0.00 0.00 0.00 85 1008.5
20191022013035 55 180 0.0 1.0 0.00 0.00 0.00 85 1008.5
20191022011032 56 180 0.0 0.0 0.00 0.00 0.00 84 1008.6
20191022010033 56 180 0.0 1.0 0.00 0.00 0.00 84 1008.8
20191022005033 56 180 1.0 2.0 0.00 0.00 0.00 83 1008.9
20191022002034 56 180 0.0 2.0 0.00 0.00 0.00 84 1009.3
20191022000034 55 225 1.0 2.0 0.00 0.00 0.00 88 1009.8
20191021234033 54 270 0.0 1.0 0.00 0.00 0.00 97 1010.2
20191021233033 54 180 0.0 1.0 0.00 0.00 0.00 97 1010.3
20191021232032 55 180 0.0 1.0 0.00 0.00 0.00 96 1010.5
20191021231032 56 180 1.0 2.0 0.00 0.00 0.00 98 1010.4
20191021230034 56 225 1.0 2.0 0.00 0.00 0.00 97 1010.4
20191021225035 56 225 0.0 2.0 0.00 0.00 0.00 96 1010.6
20191021224033 56 270 0.0 2.0 0.00 0.00 0.00 97 1010.6
20191021212032 58 45 0.0 2.0 0.00 0.00 0.00 90 1011.1
20191021211032 58 90 2.0 5.0 0.00 0.00 0.00 90 1011.0
20191021205035 58 90 1.0 3.0 0.00 0.00 0.00 88 1010.9
20191021203034 59 0 2.0 5.0 0.00 0.00 0.00 86 1011.1
20191021202018 58 135 2.0 4.0 0.00 0.00 0.00 90 1011.3
20191021200034 58 292 1.0 2.0 0.00 0.00 0.00 89 1011.6
20191021195034 58 0 2.0 4.0 0.00 0.00 0.00 89 1011.5
20191021193033 57 45 2.0 4.0 0.00 0.00 0.00 91 1011.6